sensor_id;sensor_type;location;lat;lon;timestamp;pressure;altitude;pressure_sealevel;temperature;humidity
48041;BME280;33815;48.386;11.738;2022-09-01T00:00:23;96813.53;;;13.58;100.00
48041;BME280;33815;48.386;11.738;2022-09-01T00:02:53;96793.06;;;13.36;100.00
48041;BME280;33815;48.386;11.738;2022-09-01T00:05:19;96804.06;;;13.48;100.00
48041;BME280;33815;48.386;11.738;2022-09-01T00:07:44;96819.09;;;13.54;100.00
48041;BME280;33815;48.386;11.738;2022-09-01T00:10:10;96819.09;;;13.54;100.00
48041;BME280;33815;48.386;11.738;2022-09-01T00:12:35;96819.59;;;13.58;100.00
48041;BME280;33815;48.386;11.738;2022-09-01T00:15:01;96820.75;;;13.56;100.00
48041;BME280;33815;48.386;11.738;2022-09-01T00:17:27;96812.72;;;13.57;100.00
48041;BME280;33815;48.386;11.738;2022-09-01T00:19:52;96821.09;;;13.61;100.00
48041;BME280;33815;48.386;11.738;2022-09-01T00:22:18;96813.53;;;13.58;100.00
48041;BME280;33815;48.386;11.738;2022-09-01T00:24:43;96797.50;;;13.52;100.00
48041;BME280;33815;48.386;11.738;2022-09-01T00:27:08;96807.50;;;13.57;100.00
48041;BME280;33815;48.386;11.738;2022-09-01T00:29:33;96813.38;;;13.67;100.00
48041;BME280;33815;48.386;11.738;2022-09-01T00:31:59;96806.34;;;13.68;100.00
48041;BME280;33815;48.386;11.738;2022-09-01T00:34:24;96801.44;;;13.57;100.00
48041;BME280;33815;48.386;11.738;2022-09-01T00:36:50;96806.81;;;13.63;100.00
48041;BME280;33815;48.386;11.738;2022-09-01T00:39:16;96800.59;;;13.56;100.00
48041;BME280;33815;48.386;11.738;2022-09-01T00:41:42;96803.06;;;13.66;100.00
48041;BME280;33815;48.386;11.738;2022-09-01T00:44:12;96810.59;;;13.69;100.00
48041;BME280;33815;48.386;11.738;2022-09-01T00:46:42;96810.28;;;13.72;100.00
48041;BME280;33815;48.386;11.738;2022-09-01T00:49:12;96807.81;;;13.70;100.00
48041;BME280;33815;48.386;11.738;2022-09-01T00:51:41;96807.00;;;13.70;100.00
48041;BME280;33815;48.386;11.738;2022-09-01T00:54:11;96809.59;;;13.70;100.00
48041;BME280;33815;48.386;11.738;2022-09-01T00:56:39;96810.28;;;13.72;100.00
48041;BME280;33815;48.386;11.738;2022-09-01T00:59:07;96795.19;;;13.66;100.00
48041;BME280;33815;48.386;11.738;2022-09-01T01:01:34;96796.69;;;13.68;100.00
48041;BME280;33815;48.386;11.738;2022-09-01T01:04:02;96801.41;;;13.73;100.00
48041;BME280;33815;48.386;11.738;2022-09-01T01:06:27;96798.50;;;13.76;100.00
48041;BME280;33815;48.386;11.738;2022-09-01T01:08:56;96789.31;;;13.72;100.00
48041;BME280;33815;48.386;11.738;2022-09-01T01:11:28;96798.66;;;13.75;100.00
48041;BME280;33815;48.386;11.738;2022-09-01T01:14:04;96801.59;;;13.71;100.00
48041;BME280;33815;48.386;11.738;2022-09-01T01:16:34;96800.09;;;13.69;100.00
48041;BME280;33815;48.386;11.738;2022-09-01T01:19:00;96784.44;;;13.61;100.00
48041;BME280;33815;48.386;11.738;2022-09-01T01:21:34;96800.44;;;13.66;100.00
48041;BME280;33815;48.386;11.738;2022-09-01T01:24:26;96780.50;;;13.57;100.00
48041;BME280;33815;48.386;11.738;2022-09-01T01:26:53;96797.69;;;13.59;100.00
48041;BME280;33815;48.386;11.738;2022-09-01T01:29:22;96794.06;;;13.60;100.00
48041;BME280;33815;48.386;11.738;2022-09-01T01:31:48;96794.41;;;13.57;100.00
48041;BME280;33815;48.386;11.738;2022-09-01T01:34:17;96793.88;;;13.53;100.00
48041;BME280;33815;48.386;11.738;2022-09-01T01:36:45;96795.69;;;13.53;100.00
48041;BME280;33815;48.386;11.738;2022-09-01T01:39:14;96800.28;;;13.51;100.00
48041;BME280;33815;48.386;11.738;2022-09-01T01:41:43;96779.34;;;13.43;100.00
48041;BME280;33815;48.386;11.738;2022-09-01T01:44:15;96781.13;;;13.42;100.00
48041;BME280;33815;48.386;11.738;2022-09-01T01:46:43;96782.28;;;13.48;100.00
48041;BME280;33815;48.386;11.738;2022-09-01T01:49:10;96782.78;;;13.51;100.00
48041;BME280;33815;48.386;11.738;2022-09-01T01:51:37;96786.38;;;13.50;100.00
48041;BME280;33815;48.386;11.738;2022-09-01T01:54:03;96777.38;;;13.45;100.00
48041;BME280;33815;48.386;11.738;2022-09-01T01:56:31;96781.47;;;13.47;100.00
48041;BME280;33815;48.386;11.738;2022-09-01T01:58:57;96777.88;;;13.48;100.00
48041;BME280;33815;48.386;11.738;2022-09-01T02:01:25;96770.00;;;13.40;100.00
48041;BME280;33815;48.386;11.738;2022-09-01T02:03:57;96772.13;;;13.45;100.00
48041;BME280;33815;48.386;11.738;2022-09-01T02:06:24;96779.50;;;13.41;100.00
48041;BME280;33815;48.386;11.738;2022-09-01T02:08:51;96773.78;;;13.38;100.00
48041;BME280;33815;48.386;11.738;2022-09-01T02:11:18;96771.31;;;13.36;100.00
48041;BME280;33815;48.386;11.738;2022-09-01T02:13:44;96771.78;;;13.31;100.00
48041;BME280;33815;48.386;11.738;2022-09-01T02:16:11;96765.88;;;13.29;100.00
48041;BME280;33815;48.386;11.738;2022-09-01T02:18:40;96769.97;;;13.32;100.00
48041;BME280;33815;48.386;11.738;2022-09-01T02:21:08;96768.31;;;13.31;100.00
48041;BME280;33815;48.386;11.738;2022-09-01T02:23:36;96770.13;;;13.30;100.00
48041;BME280;33815;48.386;11.738;2022-09-01T02:26:02;96771.13;;;13.29;100.00
48041;BME280;33815;48.386;11.738;2022-09-01T02:28:33;96769.78;;;13.25;100.00
48041;BME280;33815;48.386;11.738;2022-09-01T02:31:00;96775.19;;;13.24;100.00
48041;BME280;33815;48.386;11.738;2022-09-01T02:33:29;96776.50;;;13.19;100.00
48041;BME280;33815;48.386;11.738;2022-09-01T02:35:58;96769.50;;;13.20;100.00
48041;BME280;33815;48.386;11.738;2022-09-01T02:38:24;96779.13;;;13.19;100.00
48041;BME280;33815;48.386;11.738;2022-09-01T02:40:57;96774.56;;;13.22;100.00
48041;BME280;33815;48.386;11.738;2022-09-01T02:43:24;96772.28;;;13.18;100.00
48041;BME280;33815;48.386;11.738;2022-09-01T02:45:54;96774.22;;;13.16;100.00
48041;BME280;33815;48.386;11.738;2022-09-01T02:48:32;96772.28;;;13.18;100.00
48041;BME280;33815;48.386;11.738;2022-09-01T02:51:00;96765.38;;;13.09;100.00
48041;BME280;33815;48.386;11.738;2022-09-01T02:53:30;96774.88;;;13.18;100.00
48041;BME280;33815;48.386;11.738;2022-09-01T02:55:58;96760.75;;;13.03;100.00
48041;BME280;33815;48.386;11.738;2022-09-01T02:58:28;96771.91;;;13.13;100.00
48041;BME280;33815;48.386;11.738;2022-09-01T03:00:55;96767.66;;;13.12;100.00
48041;BME280;33815;48.386;11.738;2022-09-01T03:03:21;96772.09;;;13.12;100.00
48041;BME280;33815;48.386;11.738;2022-09-01T03:05:47;96764.88;;;13.06;100.00
48041;BME280;33815;48.386;11.738;2022-09-01T03:08:16;96760.94;;;13.01;100.00
48041;BME280;33815;48.386;11.738;2022-09-01T03:10:43;96766.19;;;13.10;100.00
48041;BME280;33815;48.386;11.738;2022-09-01T03:13:11;96763.88;;;13.07;100.00
48041;BME280;33815;48.386;11.738;2022-09-01T03:15:37;96767.47;;;13.06;100.00
48041;BME280;33815;48.386;11.738;2022-09-01T03:18:04;96755.38;;;12.96;100.00
48041;BME280;33815;48.386;11.738;2022-09-01T03:20:31;96763.09;;;13.06;100.00
48041;BME280;33815;48.386;11.738;2022-09-01T03:22:59;96761.59;;;13.03;100.00
48041;BME280;33815;48.386;11.738;2022-09-01T03:25:25;96750.59;;;12.92;100.00
48041;BME280;33815;48.386;11.738;2022-09-01T03:27:51;96763.06;;;12.98;100.00
48041;BME280;33815;48.386;11.738;2022-09-01T03:30:18;96764.03;;;12.97;100.00
48041;BME280;33815;48.386;11.738;2022-09-01T03:32:43;96764.19;;;12.95;100.00
48041;BME280;33815;48.386;11.738;2022-09-01T03:35:10;96744.56;;;12.83;100.00
48041;BME280;33815;48.386;11.738;2022-09-01T03:37:36;96754.53;;;12.88;100.00
48041;BME280;33815;48.386;11.738;2022-09-01T03:40:03;96756.97;;;12.81;100.00
48041;BME280;33815;48.386;11.738;2022-09-01T03:42:29;96745.66;;;12.72;100.00
48041;BME280;33815;48.386;11.738;2022-09-01T03:44:55;96745.19;;;12.77;100.00
48041;BME280;33815;48.386;11.738;2022-09-01T03:47:21;96739.63;;;12.72;100.00
48041;BME280;33815;48.386;11.738;2022-09-01T03:49:47;96754.66;;;12.78;100.00
48041;BME280;33815;48.386;11.738;2022-09-01T03:52:14;96747.97;;;12.75;100.00
48041;BME280;33815;48.386;11.738;2022-09-01T03:54:39;96739.28;;;12.66;100.00
48041;BME280;33815;48.386;11.738;2022-09-01T03:57:05;96752.22;;;12.76;100.00
48041;BME280;33815;48.386;11.738;2022-09-01T03:59:35;96749.75;;;12.75;100.00
48041;BME280;33815;48.386;11.738;2022-09-01T04:02:02;96748.28;;;12.72;100.00
48041;BME280;33815;48.386;11.738;2022-09-01T04:04:28;96746.50;;;12.73;100.00
48041;BME280;33815;48.386;11.738;2022-09-01T04:06:57;96742.06;;;12.73;100.00
48041;BME280;33815;48.386;11.738;2022-09-01T04:09:23;96730.28;;;12.69;100.00
48041;BME280;33815;48.386;11.738;2022-09-01T04:11:49;96730.63;;;12.66;100.00
48041;BME280;33815;48.386;11.738;2022-09-01T04:14:15;96736.19;;;12.71;100.00
48041;BME280;33815;48.386;11.738;2022-09-01T04:16:42;96742.41;;;12.70;100.00
48041;BME280;33815;48.386;11.738;2022-09-01T04:19:27;96738.13;;;12.69;100.00
48041;BME280;33815;48.386;11.738;2022-09-01T04:21:58;96734.72;;;12.68;100.00
48041;BME280;33815;48.386;11.738;2022-09-01T04:24:28;96733.56;;;12.63;100.00
48041;BME280;33815;48.386;11.738;2022-09-01T04:26:56;96712.63;;;12.55;100.00
48041;BME280;33815;48.386;11.738;2022-09-01T04:29:23;96737.81;;;12.64;100.00
48041;BME280;33815;48.386;11.738;2022-09-01T04:31:52;96731.44;;;12.66;100.00
48041;BME280;33815;48.386;11.738;2022-09-01T04:34:21;96736.38;;;12.70;100.00
48041;BME280;33815;48.386;11.738;2022-09-01T04:36:46;96727.34;;;12.64;100.00
48041;BME280;33815;48.386;11.738;2022-09-01T04:39:12;96733.06;;;12.67;100.00
48041;BME280;33815;48.386;11.738;2022-09-01T04:41:41;96735.69;;;12.67;100.00
48041;BME280;33815;48.386;11.738;2022-09-01T04:44:07;96746.50;;;12.73;100.00
48041;BME280;33815;48.386;11.738;2022-09-01T04:46:35;96746.34;;;12.74;100.00
48041;BME280;33815;48.386;11.738;2022-09-01T04:49:04;96734.91;;;12.75;100.00
48041;BME280;33815;48.386;11.738;2022-09-01T04:51:45;96745.69;;;12.80;100.00
48041;BME280;33815;48.386;11.738;2022-09-01T04:54:11;96740.97;;;12.84;100.00
48041;BME280;33815;48.386;11.738;2022-09-01T04:56:40;96743.09;;;12.89;100.00
48041;BME280;33815;48.386;11.738;2022-09-01T04:59:08;96745.38;;;12.92;100.00
48041;BME280;33815;48.386;11.738;2022-09-01T05:01:35;96737.69;;;12.90;100.00
48041;BME280;33815;48.386;11.738;2022-09-01T05:04:11;96739.84;;;12.95;100.00
48041;BME280;33815;48.386;11.738;2022-09-01T05:06:43;96730.53;;;12.92;100.00
48041;BME280;33815;48.386;11.738;2022-09-01T05:09:10;96741.31;;;13.06;100.00
48041;BME280;33815;48.386;11.738;2022-09-01T05:11:37;96738.53;;;13.07;100.00
48041;BME280;33815;48.386;11.738;2022-09-01T05:14:03;96743.78;;;13.15;100.00
48041;BME280;33815;48.386;11.738;2022-09-01T05:16:29;96746.91;;;13.19;100.00
48041;BME280;33815;48.386;11.738;2022-09-01T05:18:55;96737.25;;;13.19;100.00
48041;BME280;33815;48.386;11.738;2022-09-01T05:21:22;96735.28;;;13.22;100.00
48041;BME280;33815;48.386;11.738;2022-09-01T05:23:53;96742.81;;;13.33;100.00
48041;BME280;33815;48.386;11.738;2022-09-01T05:26:24;96742.66;;;13.34;100.00
48041;BME280;33815;48.386;11.738;2022-09-01T05:28:53;96738.59;;;13.40;100.00
48041;BME280;33815;48.386;11.738;2022-09-01T05:31:20;96728.63;;;13.35;100.00
48041;BME280;33815;48.386;11.738;2022-09-01T05:33:46;96750.22;;;13.46;100.00
48041;BME280;33815;48.386;11.738;2022-09-01T05:36:15;96728.13;;;13.40;100.00
48041;BME280;33815;48.386;11.738;2022-09-01T05:38:42;96739.22;;;13.50;100.00
48041;BME280;33815;48.386;11.738;2022-09-01T05:41:08;96740.53;;;13.54;100.00
48041;BME280;33815;48.386;11.738;2022-09-01T05:43:43;96734.50;;;13.54;100.00
48041;BME280;33815;48.386;11.738;2022-09-01T05:46:16;96734.34;;;13.56;100.00
48041;BME280;33815;48.386;11.738;2022-09-01T05:48:44;96729.59;;;13.59;100.00
48041;BME280;33815;48.386;11.738;2022-09-01T05:51:11;96732.50;;;13.64;100.00
48041;BME280;33815;48.386;11.738;2022-09-01T05:53:41;96728.75;;;13.67;100.00
48041;BME280;33815;48.386;11.738;2022-09-01T05:56:09;96739.38;;;13.74;100.00
48041;BME280;33815;48.386;11.738;2022-09-01T05:58:37;96724.31;;;13.76;100.00
48041;BME280;33815;48.386;11.738;2022-09-01T06:01:04;96735.13;;;13.81;100.00
48041;BME280;33815;48.386;11.738;2022-09-01T06:03:30;96741.31;;;13.88;100.00
48041;BME280;33815;48.386;11.738;2022-09-01T06:06:02;96734.94;;;13.91;100.00
48041;BME280;33815;48.386;11.738;2022-09-01T06:08:29;96742.44;;;13.94;100.00
48041;BME280;33815;48.386;11.738;2022-09-01T06:10:55;96735.56;;;14.01;100.00
48041;BME280;33815;48.386;11.738;2022-09-01T06:13:20;96742.59;;;14.09;100.00
48041;BME280;33815;48.386;11.738;2022-09-01T06:15:49;96745.38;;;14.15;100.00
48041;BME280;33815;48.386;11.738;2022-09-01T06:18:15;96731.28;;;14.08;100.00
48041;BME280;33815;48.386;11.738;2022-09-01T06:20:43;96750.69;;;14.30;100.00
48041;BME280;33815;48.386;11.738;2022-09-01T06:23:10;96753.31;;;14.30;100.00
48041;BME280;33815;48.386;11.738;2022-09-01T06:25:38;96752.81;;;14.35;100.00
48041;BME280;33815;48.386;11.738;2022-09-01T06:28:05;96753.16;;;14.32;100.00
48041;BME280;33815;48.386;11.738;2022-09-01T06:30:32;96747.25;;;14.38;100.00
48041;BME280;33815;48.386;11.738;2022-09-01T06:33:01;96760.81;;;14.42;100.00
48041;BME280;33815;48.386;11.738;2022-09-01T06:35:26;96757.66;;;14.54;100.00
48041;BME280;33815;48.386;11.738;2022-09-01T06:37:53;96752.75;;;14.51;100.00
48041;BME280;33815;48.386;11.738;2022-09-01T06:40:20;96747.50;;;14.51;100.00
48041;BME280;33815;48.386;11.738;2022-09-01T06:42:47;96750.44;;;14.56;100.00
48041;BME280;33815;48.386;11.738;2022-09-01T06:45:14;96751.19;;;14.73;100.00
48041;BME280;33815;48.386;11.738;2022-09-01T06:47:43;96766.88;;;14.90;100.00
48041;BME280;33815;48.386;11.738;2022-09-01T06:50:17;96757.47;;;14.96;100.00
48041;BME280;33815;48.386;11.738;2022-09-01T06:52:45;96768.25;;;15.01;100.00
48041;BME280;33815;48.386;11.738;2022-09-01T06:55:12;96759.19;;;15.12;100.00
48041;BME280;33815;48.386;11.738;2022-09-01T06:57:39;96768.84;;;15.34;100.00
48041;BME280;33815;48.386;11.738;2022-09-01T07:00:11;96775.88;;;15.42;100.00
48041;BME280;33815;48.386;11.738;2022-09-01T07:02:46;96777.41;;;15.36;100.00
48041;BME280;33815;48.386;11.738;2022-09-01T07:05:14;96778.78;;;15.24;100.00
48041;BME280;33815;48.386;11.738;2022-09-01T07:07:49;96770.50;;;15.12;100.00
48041;BME280;33815;48.386;11.738;2022-09-01T07:10:17;96777.63;;;15.27;100.00
48041;BME280;33815;48.386;11.738;2022-09-01T07:12:56;96779.19;;;15.36;100.00
48041;BME280;33815;48.386;11.738;2022-09-01T07:15:26;96780.09;;;15.66;100.00
48041;BME280;33815;48.386;11.738;2022-09-01T07:17:54;96795.69;;;15.68;100.00
48041;BME280;33815;48.386;11.738;2022-09-01T07:20:22;96794.28;;;16.03;100.00
48041;BME280;33815;48.386;11.738;2022-09-01T07:22:49;96795.97;;;15.96;100.00
48041;BME280;33815;48.386;11.738;2022-09-01T07:25:14;96797.16;;;15.93;100.00
48041;BME280;33815;48.386;11.738;2022-09-01T07:27:42;96785.44;;;15.96;100.00
48041;BME280;33815;48.386;11.738;2022-09-01T07:30:15;96795.06;;;16.04;100.00
48041;BME280;33815;48.386;11.738;2022-09-01T07:32:41;96781.56;;;16.07;100.00
48041;BME280;33815;48.386;11.738;2022-09-01T07:35:11;96789.84;;;16.19;100.00
48041;BME280;33815;48.386;11.738;2022-09-01T07:37:37;96798.81;;;16.39;100.00
48041;BME280;33815;48.386;11.738;2022-09-01T07:40:08;96796.56;;;16.51;100.00
48041;BME280;33815;48.386;11.738;2022-09-01T07:42:35;96790.66;;;16.34;100.00
48041;BME280;33815;48.386;11.738;2022-09-01T07:45:03;96798.19;;;16.37;100.00
48041;BME280;33815;48.386;11.738;2022-09-01T07:47:33;96793.19;;;16.42;100.00
48041;BME280;33815;48.386;11.738;2022-09-01T07:50:04;96792.38;;;16.42;100.00
48041;BME280;33815;48.386;11.738;2022-09-01T07:52:34;96806.34;;;16.42;100.00
48041;BME280;33815;48.386;11.738;2022-09-01T07:55:00;96794.91;;;16.35;100.00
48041;BME280;33815;48.386;11.738;2022-09-01T07:57:25;96806.50;;;16.41;100.00
48041;BME280;33815;48.386;11.738;2022-09-01T07:59:50;96807.53;;;16.40;100.00
48041;BME280;33815;48.386;11.738;2022-09-01T08:02:19;96805.78;;;16.17;100.00
48041;BME280;33815;48.386;11.738;2022-09-01T08:04:44;96811.84;;;16.03;100.00
48041;BME280;33815;48.386;11.738;2022-09-01T08:07:10;96819.38;;;16.06;100.00
48041;BME280;33815;48.386;11.738;2022-09-01T08:09:36;96812.75;;;16.10;100.00
48041;BME280;33815;48.386;11.738;2022-09-01T08:12:03;96814.50;;;16.18;100.00
48041;BME280;33815;48.386;11.738;2022-09-01T08:14:29;96808.16;;;16.42;100.00
48041;BME280;33815;48.386;11.738;2022-09-01T08:16:55;96810.78;;;16.42;100.00
48041;BME280;33815;48.386;11.738;2022-09-01T08:19:21;96809.25;;;16.63;100.00
48041;BME280;33815;48.386;11.738;2022-09-01T08:21:47;96817.41;;;16.98;100.00
48041;BME280;33815;48.386;11.738;2022-09-01T08:24:12;96827.94;;;16.98;100.00
48041;BME280;33815;48.386;11.738;2022-09-01T08:26:38;96833.59;;;17.16;100.00
48041;BME280;33815;48.386;11.738;2022-09-01T08:29:04;96825.09;;;17.36;100.00
48041;BME280;33815;48.386;11.738;2022-09-01T08:31:29;96832.88;;;17.44;100.00
48041;BME280;33815;48.386;11.738;2022-09-01T08:33:54;96828.94;;;17.55;100.00
48041;BME280;33815;48.386;11.738;2022-09-01T08:36:20;96838.34;;;17.64;100.00
48041;BME280;33815;48.386;11.738;2022-09-01T08:38:45;96834.00;;;17.78;100.00
48041;BME280;33815;48.386;11.738;2022-09-01T08:41:40;96835.69;;;18.07;97.42
48041;BME280;33815;48.386;11.738;2022-09-01T08:46:38;96845.88;;;17.67;99.79
48041;BME280;33815;48.386;11.738;2022-09-01T08:49:09;96849.69;;;17.64;99.20
48041;BME280;33815;48.386;11.738;2022-09-01T08:51:40;96850.69;;;17.42;99.60
48041;BME280;33815;48.386;11.738;2022-09-01T08:56:53;96846.09;;;17.29;100.00
48041;BME280;33815;48.386;11.738;2022-09-01T08:59:20;96851.84;;;17.18;99.51
48041;BME280;33815;48.386;11.738;2022-09-01T09:01:59;96853.53;;;16.74;100.00
48041;BME280;33815;48.386;11.738;2022-09-01T09:04:49;96843.16;;;16.42;100.00
48041;BME280;33815;48.386;11.738;2022-09-01T09:07:46;96862.78;;;16.40;100.00
48041;BME280;33815;48.386;11.738;2022-09-01T09:10:25;96849.88;;;16.45;100.00
48041;BME280;33815;48.386;11.738;2022-09-01T09:13:24;96854.06;;;16.39;100.00
48041;BME280;33815;48.386;11.738;2022-09-01T09:20:51;96846.91;;;16.78;100.00
48041;BME280;33815;48.386;11.738;2022-09-01T09:23:26;96850.59;;;17.13;100.00
48041;BME280;33815;48.386;11.738;2022-09-01T09:25:53;96847.16;;;17.35;100.00
48041;BME280;33815;48.386;11.738;2022-09-01T09:28:18;96836.66;;;17.56;96.49
48041;BME280;33815;48.386;11.738;2022-09-01T09:30:43;96839.84;;;17.52;100.00
48041;BME280;33815;48.386;11.738;2022-09-01T09:33:09;96832.38;;;17.55;97.78
48041;BME280;33815;48.386;11.738;2022-09-01T09:35:41;96836.91;;;17.61;94.41
48041;BME280;33815;48.386;11.738;2022-09-01T09:41:05;96823.03;;;17.53;99.04
48041;BME280;33815;48.386;11.738;2022-09-01T09:43:36;96838.78;;;17.68;95.10
48041;BME280;33815;48.386;11.738;2022-09-01T09:49:12;96832.78;;;17.95;93.54
48041;BME280;33815;48.386;11.738;2022-09-01T09:51:42;96828.50;;;18.23;87.86
48041;BME280;33815;48.386;11.738;2022-09-01T09:54:15;96826.88;;;18.22;86.71
48041;BME280;33815;48.386;11.738;2022-09-01T09:56:42;96814.72;;;18.27;88.42
48041;BME280;33815;48.386;11.738;2022-09-01T09:59:21;96820.28;;;18.81;87.53
48041;BME280;33815;48.386;11.738;2022-09-01T10:01:47;96813.00;;;19.45;84.73
48041;BME280;33815;48.386;11.738;2022-09-01T10:04:32;96819.59;;;20.02;78.21
48041;BME280;33815;48.386;11.738;2022-09-01T10:06:57;96822.81;;;20.18;79.55
48041;BME280;33815;48.386;11.738;2022-09-01T10:11:51;96810.53;;;20.57;71.74
48041;BME280;33815;48.386;11.738;2022-09-01T10:14:23;96818.00;;;20.87;75.05
48041;BME280;33815;48.386;11.738;2022-09-01T10:16:53;96806.13;;;21.03;68.91
48041;BME280;33815;48.386;11.738;2022-09-01T10:19:21;96803.56;;;21.28;71.69
48041;BME280;33815;48.386;11.738;2022-09-01T10:21:47;96816.19;;;21.26;67.99
48041;BME280;33815;48.386;11.738;2022-09-01T10:24:17;96803.84;;;21.45;69.32
48041;BME280;33815;48.386;11.738;2022-09-01T10:26:45;96803.41;;;21.55;68.44
48041;BME280;33815;48.386;11.738;2022-09-01T10:29:14;96796.03;;;22.07;62.30
48041;BME280;33815;48.386;11.738;2022-09-01T10:31:43;96790.22;;;22.42;63.14
48041;BME280;33815;48.386;11.738;2022-09-01T10:34:13;96802.44;;;22.25;60.74
48041;BME280;33815;48.386;11.738;2022-09-01T10:36:41;96798.41;;;22.41;62.60
48041;BME280;33815;48.386;11.738;2022-09-01T10:39:14;96788.03;;;21.89;62.80
48041;BME280;33815;48.386;11.738;2022-09-01T10:41:56;96793.19;;;21.84;63.88
48041;BME280;33815;48.386;11.738;2022-09-01T10:44:30;96794.53;;;21.68;66.57
48041;BME280;33815;48.386;11.738;2022-09-01T10:50:29;96799.78;;;22.25;65.89
48041;BME280;33815;48.386;11.738;2022-09-01T10:53:04;96791.94;;;23.04;63.96
48041;BME280;33815;48.386;11.738;2022-09-01T10:55:36;96784.28;;;23.15;57.73
48041;BME280;33815;48.386;11.738;2022-09-01T11:01:00;96779.06;;;24.16;54.54
48041;BME280;33815;48.386;11.738;2022-09-01T11:03:58;96775.91;;;23.95;53.29
48041;BME280;33815;48.386;11.738;2022-09-01T11:06:32;96789.06;;;23.78;56.98
48041;BME280;33815;48.386;11.738;2022-09-01T11:09:04;96780.78;;;23.44;53.19
48041;BME280;33815;48.386;11.738;2022-09-01T11:11:46;96789.91;;;22.69;54.10
48041;BME280;33815;48.386;11.738;2022-09-01T11:17:14;96787.22;;;22.57;56.75
48041;BME280;33815;48.386;11.738;2022-09-01T11:22:35;96784.47;;;22.46;59.16
48041;BME280;33815;48.386;11.738;2022-09-01T11:25:12;96778.00;;;22.90;57.36
48041;BME280;33815;48.386;11.738;2022-09-01T11:31:02;96788.22;;;22.75;59.05
48041;BME280;33815;48.386;11.738;2022-09-01T11:33:17;96780.78;;;22.65;58.12
48041;BME280;33815;48.386;11.738;2022-09-01T11:35:58;96759.28;;;22.67;58.22
48041;BME280;33815;48.386;11.738;2022-09-01T11:38:24;96766.47;;;22.48;57.15
48041;BME280;33815;48.386;11.738;2022-09-01T11:40:55;96780.22;;;22.19;59.60
48041;BME280;33815;48.386;11.738;2022-09-01T11:43:22;96775.47;;;22.03;60.09
48041;BME280;33815;48.386;11.738;2022-09-01T11:46:26;96778.78;;;22.42;59.19
48041;BME280;33815;48.386;11.738;2022-09-01T11:48:53;96770.91;;;22.35;56.80
48041;BME280;33815;48.386;11.738;2022-09-01T11:51:19;96770.06;;;22.16;57.88
48041;BME280;33815;48.386;11.738;2022-09-01T11:53:45;96785.09;;;22.22;60.14
48041;BME280;33815;48.386;11.738;2022-09-01T11:58:39;96769.31;;;22.28;58.41
48041;BME280;33815;48.386;11.738;2022-09-01T12:01:30;96774.66;;;22.65;58.47
48041;BME280;33815;48.386;11.738;2022-09-01T12:03:56;96770.50;;;22.87;57.33
48041;BME280;33815;48.386;11.738;2022-09-01T12:06:25;96756.50;;;22.62;56.16
48041;BME280;33815;48.386;11.738;2022-09-01T12:08:56;96761.75;;;22.68;56.67
48041;BME280;33815;48.386;11.738;2022-09-01T12:11:25;96760.13;;;22.67;54.45
48041;BME280;33815;48.386;11.738;2022-09-01T12:13:57;96764.41;;;22.68;54.54
48041;BME280;33815;48.386;11.738;2022-09-01T12:16:23;96774.00;;;22.51;56.87
48041;BME280;33815;48.386;11.738;2022-09-01T12:18:51;96767.44;;;22.35;55.32
48041;BME280;33815;48.386;11.738;2022-09-01T12:21:24;96775.41;;;22.35;56.41
48041;BME280;33815;48.386;11.738;2022-09-01T12:23:50;96765.47;;;22.23;57.82
48041;BME280;33815;48.386;11.738;2022-09-01T12:26:25;96774.88;;;22.45;56.23
48041;BME280;33815;48.386;11.738;2022-09-01T12:28:50;96767.66;;;22.33;55.42
48041;BME280;33815;48.386;11.738;2022-09-01T12:31:20;96774.38;;;22.54;54.74
48041;BME280;33815;48.386;11.738;2022-09-01T12:33:48;96773.22;;;22.81;55.84
48041;BME280;33815;48.386;11.738;2022-09-01T12:36:25;96767.16;;;22.92;56.05
48041;BME280;33815;48.386;11.738;2022-09-01T12:38:53;96767.06;;;22.68;55.71
48041;BME280;33815;48.386;11.738;2022-09-01T12:41:25;96760.50;;;22.34;55.01
48041;BME280;33815;48.386;11.738;2022-09-01T12:43:51;96769.50;;;22.26;53.69
48041;BME280;33815;48.386;11.738;2022-09-01T12:46:39;96775.94;;;22.18;54.53
48041;BME280;33815;48.386;11.738;2022-09-01T12:49:17;96765.00;;;22.33;56.08
48041;BME280;33815;48.386;11.738;2022-09-01T12:51:42;96774.28;;;22.61;56.23
48041;BME280;33815;48.386;11.738;2022-09-01T12:54:09;96766.75;;;22.58;57.19
48041;BME280;33815;48.386;11.738;2022-09-01T12:56:36;96771.84;;;22.78;56.24
48041;BME280;33815;48.386;11.738;2022-09-01T12:59:09;96767.13;;;23.10;56.93
48041;BME280;33815;48.386;11.738;2022-09-01T13:01:36;96763.44;;;23.12;50.04
48041;BME280;33815;48.386;11.738;2022-09-01T13:04:28;96763.47;;;22.93;53.90
48041;BME280;33815;48.386;11.738;2022-09-01T13:07:05;96757.63;;;23.03;53.21
48041;BME280;33815;48.386;11.738;2022-09-01T13:09:31;96762.41;;;23.13;55.45
48041;BME280;33815;48.386;11.738;2022-09-01T13:12:28;96769.50;;;23.19;56.25
48041;BME280;33815;48.386;11.738;2022-09-01T13:14:53;96749.78;;;24.04;52.59
48041;BME280;33815;48.386;11.738;2022-09-01T13:17:18;96747.44;;;24.08;49.16
48041;BME280;33815;48.386;11.738;2022-09-01T13:19:44;96743.00;;;24.37;49.12
48041;BME280;33815;48.386;11.738;2022-09-01T13:22:09;96743.44;;;24.46;50.86
48041;BME280;33815;48.386;11.738;2022-09-01T13:24:34;96736.63;;;24.91;49.45
48041;BME280;33815;48.386;11.738;2022-09-01T13:27:00;96744.28;;;25.16;49.55
48041;BME280;33815;48.386;11.738;2022-09-01T13:29:25;96751.53;;;25.33;51.57